createdAt,value
2023-04-10T00:00:14.214Z,28.63
2023-04-10T00:01:14.184Z,28.66
2023-04-10T00:02:14.186Z,28.65
2023-04-10T00:03:14.473Z,28.63
2023-04-10T00:04:14.284Z,28.57
2023-04-10T00:05:14.157Z,28.59
2023-04-10T00:06:14.210Z,28.62
2023-04-10T00:07:14.086Z,28.63
2023-04-10T00:08:14.120Z,28.62
2023-04-10T00:09:15.051Z,28.60
2023-04-10T00:10:14.051Z,28.60
2023-04-10T00:11:14.062Z,28.59
2023-04-10T00:12:14.033Z,28.60
2023-04-10T00:13:14.038Z,28.66
2023-04-10T00:14:14.083Z,28.64
2023-04-10T00:15:14.048Z,28.66
2023-04-10T00:16:14.105Z,28.65
2023-04-10T00:17:14.018Z,28.66
2023-04-10T00:18:14.013Z,28.63
2023-04-10T00:19:14.030Z,28.60
2023-04-10T00:20:14.565Z,28.66
2023-04-10T00:21:13.996Z,28.60
2023-04-10T00:22:14.566Z,28.62
2023-04-10T00:23:13.969Z,28.60
2023-04-10T00:24:13.936Z,28.57
2023-04-10T00:25:13.928Z,28.57
2023-04-10T00:26:14.077Z,28.56
2023-04-10T00:27:13.960Z,28.59
2023-04-10T00:28:13.985Z,28.56
2023-04-10T00:29:13.965Z,28.56
2023-04-10T00:30:14.022Z,28.59
2023-04-10T00:31:14.059Z,28.64
2023-04-10T00:32:14.213Z,28.62
2023-04-10T00:33:14.625Z,28.60
2023-04-10T00:34:14.357Z,28.57
2023-04-10T00:35:14.323Z,28.58
2023-04-10T00:36:14.416Z,28.59
2023-04-10T00:37:14.461Z,28.63
2023-04-10T00:38:14.546Z,28.66
2023-04-10T00:39:14.568Z,28.65
2023-04-10T00:40:14.654Z,28.68
2023-04-10T00:41:14.711Z,28.60
2023-04-10T00:42:14.810Z,28.62
2023-04-10T00:43:14.816Z,28.63
2023-04-10T00:44:14.884Z,28.62
2023-04-10T00:45:14.931Z,28.57
2023-04-10T00:46:15.091Z,28.64
2023-04-10T00:47:15.015Z,28.62
2023-04-10T00:48:15.083Z,28.62
2023-04-10T00:49:15.167Z,28.63
2023-04-10T00:50:15.230Z,28.62
2023-04-10T00:51:15.316Z,28.61
2023-04-10T00:52:15.337Z,28.58
2023-04-10T00:53:15.449Z,28.62
2023-04-10T00:54:15.462Z,28.63
2023-04-10T00:55:15.568Z,28.60
2023-04-10T00:56:15.620Z,28.56
2023-04-10T00:57:15.676Z,28.58
2023-04-10T00:58:15.818Z,28.60
2023-04-10T00:59:15.791Z,28.62
2023-04-10T01:00:15.909Z,28.62
2023-04-10T01:01:15.955Z,28.65
2023-04-10T01:02:16.031Z,28.62
2023-04-10T01:03:16.232Z,28.65
2023-04-10T01:04:16.261Z,28.62
2023-04-10T01:05:16.143Z,28.64
2023-04-10T01:06:16.239Z,28.57
2023-04-10T01:07:16.276Z,28.64
2023-04-10T01:08:16.344Z,28.63
2023-04-10T01:09:17.105Z,28.67
2023-04-10T01:10:16.424Z,28.67
2023-04-10T01:11:16.560Z,28.65
2023-04-10T01:12:16.598Z,28.58
2023-04-10T01:13:17.567Z,28.63
2023-04-10T01:14:16.730Z,28.66
2023-04-10T01:15:16.740Z,28.67
2023-04-10T01:16:16.870Z,28.68
2023-04-10T01:17:16.904Z,28.68
2023-04-10T01:18:16.929Z,28.67
2023-04-10T01:19:16.986Z,28.59
2023-04-10T01:20:17.058Z,28.63
2023-04-10T01:21:17.182Z,28.66
2023-04-10T01:22:17.202Z,28.65
2023-04-10T01:23:17.244Z,28.63
2023-04-10T01:24:17.288Z,28.64
2023-04-10T01:25:17.974Z,28.55
2023-04-10T01:26:17.493Z,28.55
2023-04-10T01:27:17.471Z,28.58
2023-04-10T01:28:17.641Z,28.64
2023-04-10T01:29:17.595Z,28.65
2023-04-10T01:30:17.678Z,28.57
2023-04-10T01:31:17.747Z,28.54
2023-04-10T01:32:17.773Z,28.52
2023-04-10T01:33:17.881Z,28.58
2023-04-10T01:34:17.960Z,28.59
2023-04-10T01:35:17.958Z,28.61
2023-04-10T01:36:18.684Z,28.63
2023-04-10T01:37:18.052Z,28.63
2023-04-10T01:38:18.112Z,28.61
2023-04-10T01:39:18.181Z,28.60
2023-04-10T01:40:18.240Z,28.60
2023-04-10T01:41:18.275Z,28.57
2023-04-10T01:42:18.320Z,28.56
2023-04-10T01:43:18.389Z,28.57
2023-04-10T01:44:18.453Z,28.57
2023-04-10T01:45:18.540Z,28.58
2023-04-10T01:46:18.621Z,28.58
2023-04-10T01:47:18.595Z,28.56
2023-04-10T01:48:18.723Z,28.59
2023-04-10T01:49:18.850Z,28.58
2023-04-10T01:50:18.788Z,28.56
2023-04-10T01:51:18.951Z,28.55
2023-04-10T01:52:18.902Z,28.54
2023-04-10T01:53:19.017Z,28.52
2023-04-10T01:54:19.021Z,28.54
2023-04-10T01:55:19.137Z,28.54
2023-04-10T01:56:19.154Z,28.57
2023-04-10T01:57:19.236Z,28.54
2023-04-10T01:58:19.223Z,28.52
2023-04-10T01:59:19.281Z,28.53
2023-04-10T02:00:19.354Z,28.55
2023-04-10T02:01:29.113Z,28.53
2023-04-10T02:02:20.422Z,28.55
2023-04-10T02:03:19.569Z,28.50
2023-04-10T02:04:19.461Z,28.45
2023-04-10T02:05:19.341Z,28.45
2023-04-10T02:06:19.424Z,28.48
2023-04-10T02:07:19.349Z,28.48
2023-04-10T02:08:19.417Z,28.44
2023-04-10T02:09:19.420Z,28.45
2023-04-10T02:10:19.452Z,28.42
2023-04-10T02:11:19.535Z,28.43
2023-04-10T02:12:19.580Z,28.44
2023-04-10T02:13:19.664Z,28.49
2023-04-10T02:14:19.687Z,28.49
2023-04-10T02:15:19.739Z,28.43
2023-04-10T02:16:19.850Z,28.38
2023-04-10T02:17:19.911Z,28.48
2023-04-10T02:18:19.909Z,28.43
2023-04-10T02:19:19.981Z,28.50
2023-04-10T02:20:19.984Z,28.49
2023-04-10T02:21:20.077Z,28.50
2023-04-10T02:22:20.107Z,28.49
2023-04-10T02:23:22.165Z,28.50
2023-04-10T02:24:20.227Z,28.50
2023-04-10T02:25:20.293Z,28.47
2023-04-10T02:26:20.632Z,28.49
2023-04-10T02:27:20.393Z,28.50
2023-04-10T02:28:20.471Z,28.48
2023-04-10T02:29:20.490Z,28.45
2023-04-10T02:30:20.581Z,28.42
2023-04-10T02:31:20.666Z,28.47
2023-04-10T02:32:20.708Z,28.47
2023-04-10T02:33:20.719Z,28.51
2023-04-10T02:34:20.816Z,28.47
2023-04-10T02:35:20.844Z,28.47
2023-04-10T02:36:20.918Z,28.48
2023-04-10T02:37:20.960Z,28.47
2023-04-10T02:38:20.997Z,28.45
2023-04-10T02:39:21.067Z,28.37
2023-04-10T02:40:21.096Z,28.47
2023-04-10T02:41:21.146Z,28.47
2023-04-10T02:42:21.249Z,28.46
2023-04-10T02:43:21.327Z,28.44
2023-04-10T02:44:21.738Z,28.42
2023-04-10T02:45:21.392Z,28.33
2023-04-10T02:46:21.487Z,28.32
2023-04-10T02:47:21.499Z,28.30
2023-04-10T02:48:21.570Z,28.33
2023-04-10T02:49:21.640Z,28.37
2023-04-10T02:50:21.655Z,28.31
2023-04-10T02:51:21.712Z,28.38
2023-04-10T02:52:21.732Z,28.33
2023-04-10T02:53:21.850Z,28.40
2023-04-10T02:54:21.856Z,28.41
2023-04-10T02:55:22.208Z,28.37
2023-04-10T02:56:21.987Z,28.34
2023-04-10T02:57:22.071Z,28.32
2023-04-10T02:58:22.123Z,28.34
2023-04-10T02:59:22.168Z,28.35
2023-04-10T03:00:22.243Z,28.34
2023-04-10T03:01:22.279Z,28.30
2023-04-10T03:02:22.425Z,28.29
2023-04-10T03:03:22.519Z,28.35
2023-04-10T03:04:22.558Z,28.31
2023-04-10T03:05:22.458Z,28.28
2023-04-10T03:06:22.503Z,28.35
2023-04-10T03:07:22.571Z,28.39
2023-04-10T03:08:22.618Z,28.39
2023-04-10T03:09:22.670Z,28.37
2023-04-10T03:10:23.661Z,28.35
2023-04-10T03:11:24.134Z,28.32
2023-04-10T03:12:22.812Z,28.37
2023-04-10T03:13:22.882Z,28.40
2023-04-10T03:14:22.930Z,28.41
2023-04-10T03:15:22.992Z,28.38
2023-04-10T03:16:23.100Z,28.38
2023-04-10T03:17:23.078Z,28.39
2023-04-10T03:18:24.255Z,28.41
2023-04-10T03:19:23.200Z,28.37
2023-04-10T03:20:23.255Z,28.33
2023-04-10T03:21:23.640Z,28.33
2023-04-10T03:22:23.380Z,28.36
2023-04-10T03:23:23.409Z,28.34
2023-04-10T03:24:23.467Z,28.34
2023-04-10T03:25:23.659Z,28.35
2023-04-10T03:26:23.567Z,28.37
2023-04-10T03:27:23.616Z,28.34
2023-04-10T03:28:23.731Z,28.35
2023-04-10T03:29:23.764Z,28.35
2023-04-10T03:30:23.779Z,28.28
2023-04-10T03:31:25.705Z,28.30
2023-04-10T03:32:23.964Z,28.34
2023-04-10T03:33:23.987Z,28.29
2023-04-10T03:34:24.000Z,28.30
2023-04-10T03:35:24.699Z,28.27
2023-04-10T03:36:24.097Z,28.31
2023-04-10T03:37:24.125Z,28.32
2023-04-10T03:38:24.193Z,28.32
2023-04-10T03:39:24.247Z,28.35
2023-04-10T03:40:24.325Z,28.35
2023-04-10T03:41:25.418Z,28.34
2023-04-10T03:42:24.534Z,28.30
2023-04-10T03:43:24.440Z,28.36
2023-04-10T03:44:24.539Z,28.35
2023-04-10T03:45:24.574Z,28.33
2023-04-10T03:46:24.654Z,28.34
2023-04-10T03:47:24.695Z,28.33
2023-04-10T03:48:24.793Z,28.34
2023-04-10T03:49:24.756Z,28.33
2023-04-10T03:50:24.859Z,28.32
2023-04-10T03:51:25.006Z,28.33
2023-04-10T03:52:24.956Z,28.32
2023-04-10T03:53:24.997Z,28.31
2023-04-10T03:54:25.065Z,28.33
2023-04-10T03:55:25.080Z,28.32
2023-04-10T03:56:25.194Z,28.35
2023-04-10T03:57:25.193Z,28.31
2023-04-10T03:58:25.271Z,28.32
2023-04-10T03:59:37.380Z,28.34
2023-04-10T04:00:26.272Z,28.35
2023-04-10T04:01:25.314Z,28.32
2023-04-10T04:02:25.346Z,28.34
2023-04-10T04:03:25.566Z,28.31
2023-04-10T04:04:25.392Z,28.32
2023-04-10T04:05:25.242Z,28.32
2023-04-10T04:06:25.237Z,28.33
2023-04-10T04:07:25.213Z,28.34
2023-04-10T04:08:25.227Z,28.31
2023-04-10T04:09:25.246Z,28.31
2023-04-10T04:10:25.639Z,28.32
2023-04-10T04:11:25.392Z,28.33
2023-04-10T04:12:25.510Z,28.34
2023-04-10T04:13:25.469Z,28.33
2023-04-10T04:14:25.549Z,28.33
2023-04-10T04:15:25.621Z,28.26
2023-04-10T04:16:25.695Z,28.29
2023-04-10T04:17:25.731Z,28.31
2023-04-10T04:18:25.739Z,28.28
2023-04-10T04:19:25.811Z,28.31
2023-04-10T04:20:25.856Z,28.33
2023-04-10T04:21:26.045Z,28.24
2023-04-10T04:22:25.968Z,28.28
2023-04-10T04:23:26.009Z,28.29
2023-04-10T04:24:26.062Z,28.25
2023-04-10T04:25:26.149Z,28.25
2023-04-10T04:26:26.168Z,28.20
2023-04-10T04:27:26.257Z,28.21
2023-04-10T04:28:27.075Z,28.23
2023-04-10T04:29:26.281Z,28.26
2023-04-10T04:30:26.681Z,28.26
2023-04-10T04:31:26.411Z,28.24
2023-04-10T04:32:26.552Z,28.24
2023-04-10T04:33:26.530Z,28.26
2023-04-10T04:34:26.563Z,28.29
2023-04-10T04:35:26.638Z,28.29
2023-04-10T04:36:26.722Z,28.27
2023-04-10T04:37:26.753Z,28.27
2023-04-10T04:38:26.833Z,28.25
2023-04-10T04:39:26.813Z,28.28
2023-04-10T04:40:26.906Z,28.27
2023-04-10T04:41:27.189Z,28.28
2023-04-10T04:42:27.020Z,28.29
2023-04-10T04:43:27.075Z,28.29
2023-04-10T04:44:27.145Z,28.26
2023-04-10T04:45:27.149Z,28.25
2023-04-10T04:46:27.324Z,28.26
2023-04-10T04:47:27.349Z,28.23
2023-04-10T04:48:28.055Z,28.24
2023-04-10T04:49:27.398Z,28.24
2023-04-10T04:50:27.499Z,28.24
2023-04-10T04:51:27.525Z,28.23
2023-04-10T04:52:27.555Z,28.26
2023-04-10T04:53:27.602Z,28.23
2023-04-10T04:54:27.686Z,28.27
2023-04-10T04:55:27.784Z,28.25
2023-04-10T04:56:27.786Z,28.22
2023-04-10T04:57:27.875Z,28.25
2023-04-10T04:58:27.960Z,28.25
2023-04-10T04:59:28.021Z,28.21
2023-04-10T05:00:28.018Z,28.15
2023-04-10T05:01:28.095Z,28.13
2023-04-10T05:02:28.248Z,28.11
2023-04-10T05:03:28.421Z,28.11
2023-04-10T05:04:28.238Z,28.12
2023-04-10T05:05:28.256Z,28.08
2023-04-10T05:06:28.316Z,28.13
2023-04-10T05:07:28.355Z,28.07
2023-04-10T05:08:28.417Z,28.07
2023-04-10T05:09:28.434Z,28.12
2023-04-10T05:10:28.488Z,28.14
2023-04-10T05:11:28.544Z,28.13
2023-04-10T05:12:28.590Z,28.10
2023-04-10T05:13:28.665Z,28.12
2023-04-10T05:14:28.657Z,28.10
2023-04-10T05:15:28.744Z,28.12
2023-04-10T05:16:28.775Z,28.09
2023-04-10T05:17:28.896Z,28.10
2023-04-10T05:18:28.895Z,28.14
2023-04-10T05:19:28.877Z,28.09
2023-04-10T05:20:29.070Z,28.10
2023-04-10T05:21:29.670Z,28.10
2023-04-10T05:22:29.082Z,28.11
2023-04-10T05:23:29.082Z,28.11
2023-04-10T05:24:29.152Z,28.09
2023-04-10T05:25:29.191Z,28.09
2023-04-10T05:26:29.680Z,28.08
2023-04-10T05:27:29.261Z,28.07
2023-04-10T05:28:30.186Z,28.05
2023-04-10T05:29:29.365Z,28.06
2023-04-10T05:30:29.367Z,28.06
2023-04-10T05:31:29.466Z,28.00
2023-04-10T05:32:29.485Z,28.02
2023-04-10T05:33:30.210Z,28.00
2023-04-10T05:34:29.571Z,28.03
2023-04-10T05:35:29.627Z,28.01
2023-04-10T05:36:29.666Z,28.02
2023-04-10T05:37:30.675Z,27.98
2023-04-10T05:38:29.723Z,27.98
2023-04-10T05:39:29.751Z,27.99
2023-04-10T05:40:29.819Z,27.96
2023-04-10T05:41:29.841Z,27.96
2023-04-10T05:42:30.702Z,27.90
2023-04-10T05:43:29.926Z,27.91
2023-04-10T05:44:29.902Z,27.94
2023-04-10T05:45:30.699Z,27.91
2023-04-10T05:46:30.006Z,27.91
2023-04-10T05:47:30.060Z,27.92
2023-04-10T05:48:30.702Z,27.90
2023-04-10T05:49:30.080Z,27.90
2023-04-10T05:50:30.787Z,27.90
2023-04-10T05:51:30.182Z,27.89
2023-04-10T05:52:30.160Z,27.87
2023-04-10T05:53:31.216Z,27.87
2023-04-10T05:54:30.221Z,27.90
2023-04-10T05:55:31.181Z,27.87
2023-04-10T05:56:30.257Z,27.84
2023-04-10T05:57:30.315Z,27.84
2023-04-10T05:58:31.185Z,27.83
2023-04-10T05:59:30.655Z,27.78
2023-04-10T06:00:30.475Z,27.84
2023-04-10T06:01:30.399Z,27.75
2023-04-10T06:02:30.652Z,27.80
2023-04-10T06:03:30.776Z,27.79
2023-04-10T06:04:30.635Z,27.80
2023-04-10T06:05:30.487Z,27.79
2023-04-10T06:06:30.505Z,27.81
2023-04-10T06:07:30.470Z,27.77
2023-04-10T06:08:30.443Z,27.75
2023-04-10T06:09:30.466Z,27.76
2023-04-10T06:10:30.528Z,27.74
2023-04-10T06:11:30.508Z,27.73
2023-04-10T06:12:30.519Z,27.74
2023-04-10T06:13:30.532Z,27.73
2023-04-10T06:14:30.558Z,27.70
2023-04-10T06:15:30.524Z,27.70
2023-04-10T06:16:30.629Z,27.72
2023-04-10T06:17:30.575Z,27.67
2023-04-10T06:18:30.626Z,27.71
2023-04-10T06:19:30.622Z,27.67
2023-04-10T06:20:30.612Z,27.70
2023-04-10T06:21:30.659Z,27.67
2023-04-10T06:22:30.637Z,27.67
2023-04-10T06:23:30.704Z,27.65
2023-04-10T06:24:30.680Z,27.65
2023-04-10T06:25:30.713Z,27.65
2023-04-10T06:26:30.713Z,27.62
2023-04-10T06:27:30.745Z,27.64
2023-04-10T06:28:30.721Z,27.65
2023-04-10T06:29:30.788Z,27.61
2023-04-10T06:30:30.812Z,27.61
2023-04-10T06:31:31.213Z,27.61
2023-04-10T06:32:30.841Z,27.59
2023-04-10T06:33:30.806Z,27.58
2023-04-10T06:34:30.830Z,27.59
2023-04-10T06:35:30.825Z,27.56
2023-04-10T06:36:30.818Z,27.55
2023-04-10T06:37:30.841Z,27.58
2023-04-10T06:38:30.840Z,27.57
2023-04-10T06:39:31.727Z,27.60
2023-04-10T06:40:30.848Z,27.56
2023-04-10T06:41:30.847Z,27.58
2023-04-10T06:42:30.875Z,27.54
2023-04-10T06:43:30.909Z,27.56
2023-04-10T06:44:30.914Z,27.56
2023-04-10T06:45:30.903Z,27.56
2023-04-10T06:46:30.920Z,27.53
2023-04-10T06:47:30.964Z,27.55
2023-04-10T06:48:30.937Z,27.51
2023-04-10T06:49:30.960Z,27.51
2023-04-10T06:50:33.283Z,27.51
2023-04-10T06:51:31.002Z,27.50
2023-04-10T06:52:31.000Z,27.52
2023-04-10T06:53:31.043Z,27.51
2023-04-10T06:54:30.998Z,27.52
2023-04-10T06:55:30.999Z,27.51
2023-04-10T06:56:34.256Z,27.48
2023-04-10T06:57:31.184Z,27.48
2023-04-10T06:58:31.004Z,27.45
2023-04-10T06:59:31.720Z,27.44
2023-04-10T07:00:31.041Z,27.49
2023-04-10T07:01:30.987Z,27.47
2023-04-10T07:02:31.084Z,27.44
2023-04-10T07:03:31.789Z,27.42
2023-04-10T07:04:30.980Z,27.47
2023-04-10T07:05:30.948Z,27.45
2023-04-10T07:06:31.740Z,27.42
2023-04-10T07:07:30.927Z,27.46
2023-04-10T07:08:30.962Z,27.43
2023-04-10T07:09:30.920Z,27.40
2023-04-10T07:10:30.982Z,27.40
2023-04-10T07:11:30.901Z,27.41
2023-04-10T07:12:30.926Z,27.37
2023-04-10T07:13:30.900Z,27.37
2023-04-10T07:14:30.907Z,27.36
2023-04-10T07:15:30.889Z,27.37
2023-04-10T07:16:30.927Z,27.38
2023-04-10T07:17:30.948Z,27.34
2023-04-10T07:18:30.847Z,27.35
2023-04-10T07:19:30.849Z,27.32
2023-04-10T07:20:30.877Z,27.31
2023-04-10T07:21:30.848Z,27.32
2023-04-10T07:22:30.849Z,27.31
2023-04-10T07:23:30.845Z,27.33
2023-04-10T07:24:30.846Z,27.31
2023-04-10T07:25:30.815Z,27.31
2023-04-10T07:26:30.780Z,27.28
2023-04-10T07:27:30.791Z,27.27
2023-04-10T07:28:30.831Z,27.27
2023-04-10T07:29:30.783Z,27.25
2023-04-10T07:30:30.754Z,27.25
2023-04-10T07:31:31.257Z,27.23
2023-04-10T07:32:30.935Z,27.23
2023-04-10T07:33:30.778Z,27.21
2023-04-10T07:34:30.729Z,27.20
2023-04-10T07:35:31.748Z,27.19
2023-04-10T07:36:30.765Z,27.20
2023-04-10T07:37:30.838Z,27.20
2023-04-10T07:38:30.742Z,27.17
2023-04-10T07:39:31.226Z,27.20
2023-04-10T07:40:30.846Z,27.16
2023-04-10T07:41:30.709Z,27.14
2023-04-10T07:42:30.675Z,27.15
2023-04-10T07:43:30.733Z,27.19
2023-04-10T07:44:30.808Z,27.11
2023-04-10T07:45:30.910Z,27.12
2023-04-10T07:46:30.906Z,27.11
2023-04-10T07:47:31.043Z,27.11
2023-04-10T07:48:31.017Z,27.10
2023-04-10T07:49:31.066Z,27.12
2023-04-10T07:50:31.132Z,27.09
2023-04-10T07:51:34.880Z,27.05
2023-04-10T07:52:31.177Z,27.08
2023-04-10T07:53:31.170Z,27.10
2023-04-10T07:54:31.148Z,27.06
2023-04-10T07:55:31.171Z,27.04
2023-04-10T07:56:31.144Z,27.05
2023-04-10T07:57:31.160Z,27.08
2023-04-10T07:58:31.125Z,27.02
2023-04-10T07:59:31.142Z,27.00
2023-04-10T08:00:31.155Z,27.01
2023-04-10T08:01:31.142Z,27.02
2023-04-10T08:02:31.267Z,26.97
2023-04-10T08:03:31.380Z,26.99
2023-04-10T08:04:31.285Z,26.97
2023-04-10T08:05:31.224Z,26.94
2023-04-10T08:06:31.076Z,26.95
2023-04-10T08:07:31.095Z,26.95
2023-04-10T08:08:31.041Z,26.95
2023-04-10T08:09:31.073Z,26.90
2023-04-10T08:10:31.033Z,26.88
2023-04-10T08:11:31.065Z,26.86
2023-04-10T08:12:31.029Z,26.87
2023-04-10T08:13:31.816Z,26.87
2023-04-10T08:14:31.047Z,26.87
2023-04-10T08:15:31.031Z,26.89
2023-04-10T08:16:31.131Z,26.85
2023-04-10T08:17:31.812Z,26.83
2023-04-10T08:18:31.018Z,26.82
2023-04-10T08:19:31.006Z,26.82
2023-04-10T08:20:30.973Z,26.79
2023-04-10T08:21:32.047Z,26.79
2023-04-10T08:22:37.768Z,26.81
2023-04-10T08:23:30.928Z,26.81
2023-04-10T08:24:31.158Z,26.80
2023-04-10T08:25:30.945Z,26.76
2023-04-10T08:26:30.985Z,26.76
2023-04-10T08:27:31.818Z,26.76
2023-04-10T08:28:30.923Z,26.75
2023-04-10T08:29:30.940Z,26.72
2023-04-10T08:30:31.832Z,26.72
2023-04-10T08:31:31.019Z,26.72
2023-04-10T08:32:30.968Z,26.69
2023-04-10T08:33:30.909Z,26.70
2023-04-10T08:34:30.862Z,26.71
2023-04-10T08:35:30.942Z,26.65
2023-04-10T08:36:30.914Z,26.69
2023-04-10T08:37:30.857Z,26.67
2023-04-10T08:38:30.828Z,26.65
2023-04-10T08:39:30.859Z,26.63
2023-04-10T08:40:30.813Z,26.64
2023-04-10T08:41:30.847Z,26.61
2023-04-10T08:42:30.879Z,26.60
2023-04-10T08:43:30.856Z,26.58
2023-04-10T08:44:30.788Z,26.59
2023-04-10T08:45:30.794Z,26.57
2023-04-10T08:46:30.817Z,26.56
2023-04-10T08:47:30.778Z,26.56
2023-04-10T08:48:30.873Z,26.52
2023-04-10T08:49:30.800Z,26.49
2023-04-10T08:50:30.770Z,26.49
2023-04-10T08:51:30.758Z,26.50
2023-04-10T08:52:30.754Z,26.48
2023-04-10T08:53:30.781Z,26.48
2023-04-10T08:54:30.773Z,26.47
2023-04-10T08:55:30.755Z,26.43
2023-04-10T08:56:30.722Z,26.46
2023-04-10T08:57:30.719Z,26.41
2023-04-10T08:58:30.714Z,26.40
2023-04-10T08:59:30.757Z,26.40
2023-04-10T09:00:30.725Z,26.39
2023-04-10T09:01:30.783Z,26.38
2023-04-10T09:02:30.791Z,26.38
2023-04-10T09:03:30.884Z,26.40
2023-04-10T09:04:31.350Z,26.32
2023-04-10T09:05:30.646Z,26.34
2023-04-10T09:06:30.651Z,26.30
2023-04-10T09:07:30.654Z,26.29
2023-04-10T09:08:30.734Z,26.32
2023-04-10T09:09:30.614Z,26.30
2023-04-10T09:10:30.617Z,26.26
2023-04-10T09:11:30.643Z,26.26
2023-04-10T09:12:30.613Z,26.26
2023-04-10T09:13:30.575Z,26.23
2023-04-10T09:14:30.666Z,26.24
2023-04-10T09:15:30.642Z,26.21
2023-04-10T09:16:30.719Z,26.22
2023-04-10T09:17:30.745Z,26.18
2023-04-10T09:18:30.766Z,26.20
2023-04-10T09:19:30.837Z,26.16
2023-04-10T09:20:30.890Z,26.17
2023-04-10T09:21:30.984Z,26.15
2023-04-10T09:22:31.006Z,26.15
2023-04-10T09:23:31.113Z,26.13
2023-04-10T09:24:31.186Z,26.13
2023-04-10T09:25:31.300Z,26.07
2023-04-10T09:26:31.852Z,26.08
2023-04-10T09:27:31.455Z,26.06
2023-04-10T09:28:32.270Z,26.05
2023-04-10T09:29:31.447Z,26.08
2023-04-10T09:30:31.455Z,26.09
2023-04-10T09:31:31.606Z,26.12
2023-04-10T09:32:31.590Z,26.09
2023-04-10T09:33:31.631Z,26.08
2023-04-10T09:34:31.686Z,26.07
2023-04-10T09:35:31.736Z,26.06
2023-04-10T09:36:31.805Z,26.04
2023-04-10T09:37:31.797Z,26.02
2023-04-10T09:38:31.868Z,26.01
2023-04-10T09:39:31.871Z,25.99
2023-04-10T09:40:31.949Z,25.96
2023-04-10T09:41:32.016Z,25.99
2023-04-10T09:42:32.034Z,25.95
2023-04-10T09:43:32.053Z,25.93
2023-04-10T09:44:32.120Z,25.90
2023-04-10T09:45:32.120Z,25.92
2023-04-10T09:46:32.186Z,25.89
2023-04-10T09:47:32.227Z,25.88
2023-04-10T09:48:32.247Z,25.86
2023-04-10T09:49:32.374Z,25.86
2023-04-10T09:50:36.359Z,25.85
2023-04-10T09:51:33.270Z,25.88
2023-04-10T09:52:32.278Z,25.86
2023-04-10T09:53:32.265Z,25.84
2023-04-10T09:54:32.246Z,25.82
2023-04-10T09:55:32.220Z,25.83
2023-04-10T09:56:32.798Z,25.84
2023-04-10T09:57:32.311Z,25.86
2023-04-10T09:58:32.228Z,25.83
2023-04-10T09:59:32.248Z,25.82
2023-04-10T10:00:32.219Z,25.78
2023-04-10T10:01:32.255Z,25.79
2023-04-10T10:02:32.361Z,25.75
2023-04-10T10:03:32.251Z,25.78
2023-04-10T10:04:32.178Z,25.76
2023-04-10T10:05:32.769Z,25.79
2023-04-10T10:06:32.173Z,25.73
2023-04-10T10:07:32.188Z,25.73
2023-04-10T10:08:32.146Z,25.71
2023-04-10T10:09:32.168Z,25.64
2023-04-10T10:10:32.134Z,25.65
2023-04-10T10:11:32.183Z,25.66
2023-04-10T10:12:32.132Z,25.63
2023-04-10T10:13:32.132Z,25.66
2023-04-10T10:14:32.108Z,25.62
2023-04-10T10:15:32.142Z,25.65
2023-04-10T10:16:32.210Z,25.67
2023-04-10T10:17:32.137Z,25.62
2023-04-10T10:18:32.097Z,25.61
2023-04-10T10:19:32.105Z,25.59
2023-04-10T10:20:32.569Z,25.63
2023-04-10T10:21:32.082Z,25.61
2023-04-10T10:22:32.114Z,25.59
2023-04-10T10:23:32.081Z,25.56
2023-04-10T10:24:32.043Z,25.55
2023-04-10T10:25:32.058Z,25.54
2023-04-10T10:26:32.081Z,25.53
2023-04-10T10:27:32.118Z,25.55
2023-04-10T10:28:32.028Z,25.56
2023-04-10T10:29:32.026Z,25.53
2023-04-10T10:30:32.188Z,25.51
2023-04-10T10:31:32.101Z,25.50
2023-04-10T10:32:32.161Z,25.48
2023-04-10T10:33:32.118Z,25.50
2023-04-10T10:34:32.145Z,25.49
2023-04-10T10:35:32.763Z,25.39
2023-04-10T10:36:32.418Z,25.46
2023-04-10T10:37:32.239Z,25.45
2023-04-10T10:38:32.265Z,25.38
2023-04-10T10:39:32.273Z,25.34
2023-04-10T10:40:32.314Z,25.39
2023-04-10T10:41:32.355Z,25.37
2023-04-10T10:42:32.379Z,25.35
2023-04-10T10:43:32.440Z,25.32
2023-04-10T10:44:32.535Z,25.37
2023-04-10T10:45:32.573Z,25.35
2023-04-10T10:46:32.611Z,25.32
2023-04-10T10:47:32.698Z,25.32
2023-04-10T10:48:32.755Z,25.26
2023-04-10T10:49:32.822Z,25.31
2023-04-10T10:50:32.899Z,25.25
2023-04-10T10:51:32.927Z,25.25
2023-04-10T10:52:32.990Z,25.26
2023-04-10T10:53:33.068Z,25.23
2023-04-10T10:54:33.147Z,25.24
2023-04-10T10:55:33.145Z,25.19
2023-04-10T10:56:33.201Z,25.18
2023-04-10T10:57:33.281Z,25.08
2023-04-10T10:58:33.306Z,25.16
2023-04-10T10:59:33.407Z,25.07
2023-04-10T11:00:33.454Z,25.07
2023-04-10T11:01:33.586Z,25.14
2023-04-10T11:02:33.644Z,25.15
2023-04-10T11:03:33.729Z,25.13
2023-04-10T11:04:33.680Z,25.18
2023-04-10T11:05:33.693Z,25.18
2023-04-10T11:06:33.752Z,25.17
2023-04-10T11:07:33.825Z,25.14
2023-04-10T11:08:33.875Z,25.12
2023-04-10T11:09:33.987Z,25.15
2023-04-10T11:10:35.174Z,25.13
2023-04-10T11:11:34.051Z,25.13
2023-04-10T11:12:34.072Z,25.15
2023-04-10T11:13:34.140Z,25.08
2023-04-10T11:14:34.214Z,25.10
2023-04-10T11:15:34.264Z,25.14
2023-04-10T11:16:34.317Z,25.08
2023-04-10T11:17:34.345Z,25.05
2023-04-10T11:18:34.389Z,25.03
2023-04-10T11:19:34.815Z,25.01
2023-04-10T11:20:34.474Z,24.99
2023-04-10T11:21:34.510Z,25.05
2023-04-10T11:22:34.558Z,25.06
2023-04-10T11:23:34.643Z,25.08
2023-04-10T11:24:34.693Z,25.06
2023-04-10T11:25:34.680Z,25.11
2023-04-10T11:26:34.741Z,25.02
2023-04-10T11:27:34.771Z,25.07
2023-04-10T11:28:35.298Z,25.03
2023-04-10T11:29:34.860Z,24.99
2023-04-10T11:30:34.890Z,25.05
2023-04-10T11:31:35.006Z,24.97
2023-04-10T11:32:35.039Z,25.00
2023-04-10T11:33:35.030Z,25.01
2023-04-10T11:34:35.098Z,24.96
2023-04-10T11:35:35.187Z,24.96
2023-04-10T11:36:35.157Z,25.02
2023-04-10T11:37:35.207Z,24.85
2023-04-10T11:38:35.249Z,24.89
2023-04-10T11:39:35.895Z,24.87
2023-04-10T11:40:35.319Z,24.92
2023-04-10T11:41:35.402Z,24.96
2023-04-10T11:42:38.307Z,24.97
2023-04-10T11:43:35.437Z,24.79
2023-04-10T11:44:35.505Z,24.89
2023-04-10T11:45:35.434Z,24.97
2023-04-10T11:46:35.902Z,24.93
2023-04-10T11:47:35.407Z,24.95
2023-04-10T11:48:35.387Z,24.91
2023-04-10T11:49:35.349Z,24.93
2023-04-10T11:50:35.437Z,24.93
2023-04-10T11:51:35.368Z,24.95
2023-04-10T11:52:35.311Z,24.87
2023-04-10T11:53:35.316Z,24.88
2023-04-10T11:54:35.312Z,24.86
2023-04-10T11:55:35.295Z,24.93
2023-04-10T11:56:35.310Z,24.82
2023-04-10T11:57:35.292Z,24.88
2023-04-10T11:58:35.286Z,24.83
2023-04-10T11:59:35.346Z,24.86
2023-04-10T12:00:35.265Z,24.86
2023-04-10T12:01:35.377Z,24.88
2023-04-10T12:02:35.324Z,24.95
2023-04-10T12:03:35.345Z,24.89
2023-04-10T12:04:35.493Z,24.89
2023-04-10T12:05:35.237Z,24.86
2023-04-10T12:06:35.248Z,24.95
2023-04-10T12:07:35.270Z,24.93
2023-04-10T12:08:35.274Z,24.89
2023-04-10T12:09:35.192Z,24.90
2023-04-10T12:10:35.220Z,24.93
2023-04-10T12:11:35.252Z,24.94
2023-04-10T12:12:35.146Z,24.97
2023-04-10T12:13:35.163Z,24.88
2023-04-10T12:14:35.160Z,24.95
2023-04-10T12:15:35.210Z,24.95
2023-04-10T12:16:35.181Z,25.00
2023-04-10T12:17:35.209Z,24.98
2023-04-10T12:18:35.129Z,24.93
2023-04-10T12:19:35.123Z,25.00
2023-04-10T12:20:35.128Z,24.99
2023-04-10T12:21:35.094Z,24.98
2023-04-10T12:22:35.110Z,24.99
2023-04-10T12:23:35.096Z,25.00
2023-04-10T12:24:35.110Z,25.00
2023-04-10T12:25:35.081Z,24.96
2023-04-10T12:26:35.100Z,25.01
2023-04-10T12:27:35.127Z,25.04
2023-04-10T12:28:35.058Z,25.02
2023-04-10T12:29:35.041Z,24.98
2023-04-10T12:30:35.386Z,25.00
2023-04-10T12:31:35.261Z,25.01
2023-04-10T12:32:35.105Z,25.01
2023-04-10T12:33:35.124Z,25.03
2023-04-10T12:34:35.149Z,24.99
2023-04-10T12:35:35.270Z,25.00
2023-04-10T12:36:35.388Z,25.04
2023-04-10T12:37:35.298Z,25.07
2023-04-10T12:38:35.334Z,25.07
2023-04-10T12:39:36.375Z,25.00
2023-04-10T12:40:35.408Z,25.03
2023-04-10T12:41:35.557Z,25.07
2023-04-10T12:42:35.477Z,25.08
2023-04-10T12:43:35.517Z,25.07
2023-04-10T12:44:35.594Z,25.12
2023-04-10T12:45:35.618Z,25.08
2023-04-10T12:46:35.647Z,25.12
2023-04-10T12:47:35.775Z,25.06
2023-04-10T12:48:35.716Z,25.09
2023-04-10T12:49:35.724Z,25.12
2023-04-10T12:50:35.796Z,25.13
2023-04-10T12:51:35.831Z,25.13
2023-04-10T12:52:36.856Z,25.16